Time;durP1;ratioP1;P1;durP2;ratioP2;P2;SDS_P1;SDS_P2;PMS_P1;PMS_P2;Temp;Humidity;BMP_temperature;BMP_pressure;BME280_temperature;BME280_humidity;BME280_pressure;Samples;Min_cycle;Max_cycle;Signal;HPM_P1;HPM_P2
2023/12/13 00:02:16;;;;;;;5.53;1.65;;;;;;;-7.10;75.09;99820.97;4949045;29;20051;-63
2023/12/13 00:04:42;;;;;;;11.48;1.88;;;;;;;-7.09;74.57;99819.31;4948889;28;20043;-63
2023/12/13 00:07:08;;;;;;;3.70;1.15;;;;;;;-7.06;75.10;99842.13;4950631;28;20086;-62
2023/12/13 00:09:34;;;;;;;7.25;1.10;;;;;;;-7.48;75.39;99758.03;4905291;29;20533;-64
2023/12/13 00:12:00;;;;;;;21.10;2.05;;;;;;;-7.06;75.59;99824.47;4950412;29;20175;-61
2023/12/13 00:14:25;;;;;;;4.05;1.27;;;;;;;-7.04;75.27;99851.53;4913337;29;20039;-63
2023/12/13 00:16:51;;;;;;;6.05;1.83;;;;;;;-7.08;75.22;99836.19;4935167;29;20047;-63
2023/12/13 00:19:17;;;;;;;9.13;1.17;;;;;;;-7.12;74.81;99827.66;4948819;29;20427;-62
2023/12/13 00:21:43;;;;;;;9.73;1.17;;;;;;;-7.08;74.51;99832.00;4916723;29;20771;-63
2023/12/13 00:24:09;;;;;;;5.13;1.35;;;;;;;-7.07;74.32;99840.44;4932691;29;20055;-63
2023/12/13 00:26:35;;;;;;;2.88;0.95;;;;;;;-7.13;74.00;99850.31;4949194;28;20047;-63
2023/12/13 00:29:01;;;;;;;7.25;1.30;;;;;;;-7.54;73.26;99819.28;4948878;28;20047;-62
2023/12/13 00:31:27;;;;;;;3.13;1.40;;;;;;;-7.29;74.13;99847.19;4949401;29;20043;-62
2023/12/13 00:33:53;;;;;;;7.32;1.40;;;;;;;-7.77;74.10;99762.84;4949779;29;20126;-62
2023/12/13 00:36:19;;;;;;;7.32;1.50;;;;;;;-7.31;74.46;99840.34;4948501;29;20035;-60
2023/12/13 00:38:45;;;;;;;5.22;1.10;;;;;;;-7.30;74.67;99845.47;4938044;29;20046;-62
2023/12/13 00:41:11;;;;;;;6.10;1.55;;;;;;;-7.31;74.63;99847.94;4948988;29;20155;-62
2023/12/13 00:43:36;;;;;;;12.80;1.90;;;;;;;-7.34;74.22;99837.72;4948005;29;20043;-62
2023/12/13 00:46:05;;;;;;;3.15;0.88;;;;;;;-7.27;74.04;99848.09;4935655;28;20043;-62
2023/12/13 00:48:32;;;;;;;3.42;0.85;;;;;;;-7.44;73.88;99806.22;4948073;29;20054;-62
2023/12/13 00:50:58;;;;;;;4.55;1.45;;;;;;;-7.17;73.79;99851.84;4918053;29;20053;-62
2023/12/13 00:53:24;;;;;;;3.22;1.15;;;;;;;-7.39;73.64;99816.47;4948781;29;20054;-62
2023/12/13 00:55:52;;;;;;;2.75;1.40;;;;;;;-7.57;73.19;99801.47;4937653;29;20039;-62
2023/12/13 00:58:18;;;;;;;2.53;0.90;;;;;;;-7.38;72.87;99864.50;4934564;29;20137;-61
2023/12/13 01:00:44;;;;;;;8.23;1.20;;;;;;;-7.42;73.19;99851.69;4918159;29;20054;-62
2023/12/13 01:03:10;;;;;;;12.15;1.58;;;;;;;-7.43;73.93;99857.56;4934349;29;20126;-62
2023/12/13 01:05:36;;;;;;;7.53;1.83;;;;;;;-7.60;73.83;99825.75;4948768;29;20050;-62
2023/12/13 01:08:02;;;;;;;6.38;1.58;;;;;;;-7.67;73.99;99811.16;4948042;29;20045;-63
2023/12/13 01:10:28;;;;;;;4.50;1.42;;;;;;;-7.52;73.85;99847.94;4947764;29;20043;-63
2023/12/13 01:12:54;;;;;;;2.67;1.00;;;;;;;-7.54;74.49;99851.22;4932291;29;20049;-62
2023/12/13 01:15:20;;;;;;;6.28;1.52;;;;;;;-7.53;74.32;99836.13;4933988;29;20047;-63
2023/12/13 01:17:45;;;;;;;5.05;1.73;;;;;;;-7.49;74.42;99857.31;4950475;28;20043;-63
2023/12/13 01:20:12;;;;;;;8.73;1.25;;;;;;;-7.51;73.88;99839.59;4916111;29;20066;-61
2023/12/13 01:22:38;;;;;;;11.63;1.25;;;;;;;-7.67;74.12;99813.66;4933480;29;20075;-63
2023/12/13 01:25:04;;;;;;;14.35;1.80;;;;;;;-7.54;73.55;99821.81;4936178;29;20047;-63
2023/12/13 01:27:30;;;;;;;4.63;0.98;;;;;;;-7.47;73.75;99843.06;4935517;29;20042;-63
2023/12/13 01:29:56;;;;;;;10.02;1.30;;;;;;;-7.49;74.16;99838.00;4935589;29;20043;-64
2023/12/13 01:32:22;;;;;;;4.80;1.23;;;;;;;-7.51;73.87;99844.63;4948746;29;20050;-62
2023/12/13 01:34:48;;;;;;;8.48;1.13;;;;;;;-7.83;74.15;99787.84;4935465;28;20404;-62
2023/12/13 01:37:14;;;;;;;5.60;1.42;;;;;;;-7.65;74.07;99850.81;4934015;29;20047;-62
2023/12/13 01:39:41;;;;;;;5.75;1.15;;;;;;;-7.72;74.69;99833.69;4947571;29;20051;-60
2023/12/13 01:42:07;;;;;;;4.63;1.50;;;;;;;-7.73;75.52;99858.03;4950438;28;20172;-62
2023/12/13 01:44:33;;;;;;;4.03;1.02;;;;;;;-7.77;74.82;99846.13;4921743;29;20125;-61
2023/12/13 01:47:00;;;;;;;11.80;1.88;;;;;;;-7.65;75.14;99872.66;4952243;29;20563;-61
2023/12/13 01:49:26;;;;;;;5.93;0.95;;;;;;;-7.75;75.72;99863.84;4952267;28;20047;-62
2023/12/13 01:51:52;;;;;;;2.40;1.15;;;;;;;-7.85;76.64;99849.13;4938805;29;20130;-62
2023/12/13 01:54:18;;;;;;;3.00;1.00;;;;;;;-7.85;78.17;99836.53;4938750;29;20821;-63
2023/12/13 01:56:45;;;;;;;7.80;1.10;;;;;;;-7.77;79.58;99840.19;4938724;29;20134;-63
2023/12/13 01:59:12;;;;;;;7.47;1.77;;;;;;;-7.77;81.07;99842.72;4952986;29;20515;-62
2023/12/13 02:01:39;;;;;;;6.50;1.80;;;;;;;-7.77;80.96;99850.28;4951425;29;20047;-62
2023/12/13 02:04:05;;;;;;;7.93;1.60;;;;;;;-7.77;81.16;99852.81;4953729;28;20050;-60
2023/12/13 02:06:31;;;;;;;2.75;0.85;;;;;;;-7.84;81.04;99846.66;4902915;29;20050;-61
2023/12/13 02:08:57;;;;;;;4.47;0.90;;;;;;;-8.11;80.88;99800.09;4951711;29;20043;-63
2023/12/13 02:11:23;;;;;;;10.82;1.73;;;;;;;-8.04;81.78;99806.28;4951947;29;20043;-63
2023/12/13 02:13:49;;;;;;;6.95;1.48;;;;;;;-7.95;81.95;99812.56;4935729;29;20430;-62
2023/12/13 02:16:15;;;;;;;2.60;1.20;;;;;;;-7.60;82.36;99851.84;4952369;29;20039;-63
2023/12/13 02:18:41;;;;;;;7.97;1.15;;;;;;;-7.55;82.66;99867.16;4936741;29;20050;-61
2023/12/13 02:21:07;;;;;;;6.72;2.10;;;;;;;-7.69;80.76;99851.44;4952163;28;20059;-61
2023/12/13 02:23:33;;;;;;;4.97;1.73;;;;;;;-8.08;80.00;99810.34;4918170;29;20043;-62
2023/12/13 02:26:00;;;;;;;7.32;1.55;;;;;;;-7.85;79.28;99861.75;4938310;29;20089;-62
2023/12/13 02:28:27;;;;;;;5.85;1.33;;;;;;;-7.89;78.88;99852.31;4938667;29;20042;-62
2023/12/13 02:30:55;;;;;;;4.50;1.63;;;;;;;-7.89;79.08;99837.16;4938799;29;20074;-63
2023/12/13 02:33:24;;;;;;;3.20;0.80;;;;;;;-7.70;79.96;99854.81;4950569;29;20051;-61
2023/12/13 02:35:51;;;;;;;5.95;1.10;;;;;;;-7.77;79.68;99853.69;4927301;29;20066;-62
2023/12/13 02:38:17;;;;;;;3.17;1.48;;;;;;;-7.84;78.31;99849.19;4934693;29;20095;-64
2023/12/13 02:40:43;;;;;;;5.38;1.05;;;;;;;-7.85;77.88;99846.63;4938242;29;20043;-63
2023/12/13 02:43:09;;;;;;;10.10;1.95;;;;;;;-7.77;77.58;99855.34;4951868;29;20043;-61
2023/12/13 02:45:34;;;;;;;6.60;1.25;;;;;;;-7.90;76.67;99861.53;4950594;29;20043;-60
2023/12/13 02:48:00;;;;;;;7.63;0.93;;;;;;;-8.10;76.71;99831.25;4950756;29;20065;-62
2023/12/13 02:50:26;;;;;;;4.40;1.17;;;;;;;-8.19;75.98;99837.63;4939403;29;20106;-63
2023/12/13 02:52:52;;;;;;;6.10;0.95;;;;;;;-8.06;75.32;99868.41;4947996;28;20047;-62
2023/12/13 02:55:18;;;;;;;5.20;1.30;;;;;;;-7.97;75.71;99868.81;4925599;29;20066;-63
2023/12/13 02:57:44;;;;;;;1.42;0.65;;;;;;;-8.04;75.62;99860.09;4939716;29;20047;-63
2023/12/13 03:00:11;;;;;;;7.22;1.27;;;;;;;-8.05;74.82;99875.16;4935387;29;20436;-62
2023/12/13 03:02:39;;;;;;;3.97;0.98;;;;;;;-8.04;75.33;99887.84;4951012;29;20071;-64
2023/12/13 03:05:06;;;;;;;4.72;1.52;;;;;;;-8.02;75.50;99871.13;4935628;29;20067;-62
2023/12/13 03:07:32;;;;;;;4.03;0.98;;;;;;;-8.23;75.37;99845.88;4935173;29;20047;-62
2023/12/13 03:09:58;;;;;;;5.88;1.10;;;;;;;-8.07;74.27;99869.22;4950089;28;20125;-63
2023/12/13 03:12:24;;;;;;;5.68;1.38;;;;;;;-8.09;75.20;99881.75;4951965;28;20043;-63
2023/12/13 03:14:50;;;;;;;3.80;0.90;;;;;;;-8.36;74.52;99810.00;4949805;29;20189;-64
2023/12/13 03:17:16;;;;;;;2.97;1.60;;;;;;;-8.03;74.35;99876.97;4950165;29;20067;-64
2023/12/13 03:19:42;;;;;;;2.42;1.20;;;;;;;-8.12;73.48;99881.63;4936828;29;20538;-62
2023/12/13 03:22:08;;;;;;;15.88;1.77;;;;;;;-8.20;74.15;99871.22;4936323;29;20038;-63
2023/12/13 03:24:35;;;;;;;7.25;1.10;;;;;;;-8.15;74.84;99873.91;4949433;29;20774;-64
2023/12/13 03:27:01;;;;;;;2.65;1.17;;;;;;;-8.16;74.81;99888.19;4918238;29;20039;-64
2023/12/13 03:29:27;;;;;;;3.13;1.30;;;;;;;-8.46;74.24;99825.53;4949769;29;20113;-63
2023/12/13 03:31:54;;;;;;;1.25;0.60;;;;;;;-8.29;73.91;99880.91;4935789;29;20038;-64
2023/12/13 03:34:20;;;;;;;4.72;1.08;;;;;;;-8.63;75.04;99839.94;4947747;29;20062;-63
2023/12/13 03:36:46;;;;;;;7.05;1.13;;;;;;;-8.34;74.55;99886.56;4922634;29;20039;-64
2023/12/13 03:39:12;;;;;;;6.47;1.58;;;;;;;-8.34;74.77;99886.56;4938719;29;20154;-62
2023/12/13 03:41:38;;;;;;;5.97;1.17;;;;;;;-8.34;74.25;99877.34;4948976;29;20170;-63
2023/12/13 03:44:04;;;;;;;6.45;1.10;;;;;;;-8.41;73.78;99884.56;4950500;29;20053;-61
2023/12/13 03:46:30;;;;;;;6.13;1.27;;;;;;;-8.41;73.49;99887.97;4949433;29;20043;-62
2023/12/13 03:48:56;;;;;;;2.53;1.30;;;;;;;-8.44;73.40;99879.41;4937811;29;20047;-62
2023/12/13 03:51:21;;;;;;;12.30;1.30;;;;;;;-8.44;73.02;99886.97;4933166;29;20046;-62
2023/12/13 03:53:47;;;;;;;12.73;1.15;;;;;;;-8.50;72.25;99872.44;4950741;29;20043;-63
2023/12/13 03:56:13;;;;;;;3.85;0.90;;;;;;;-8.52;72.78;99881.59;4949681;29;20035;-62
2023/12/13 03:58:39;;;;;;;3.60;1.00;;;;;;;-9.08;71.59;99798.47;4950579;28;20058;-62
2023/12/13 04:01:07;;;;;;;15.50;1.10;;;;;;;-8.57;71.38;99878.00;4936745;29;20483;-65
2023/12/13 04:03:34;;;;;;;4.10;0.95;;;;;;;-8.58;71.96;99878.78;4948648;28;20047;-62
2023/12/13 04:06:01;;;;;;;8.40;1.52;;;;;;;-8.66;71.19;99878.47;4948839;29;20043;-64
2023/12/13 04:08:27;;;;;;;3.97;1.05;;;;;;;-8.65;71.55;99882.72;4935435;29;20043;-63
2023/12/13 04:10:52;;;;;;;6.07;1.70;;;;;;;-8.73;71.66;99890.69;4949586;29;20070;-62
2023/12/13 04:13:18;;;;;;;6.13;1.00;;;;;;;-8.79;72.16;99911.44;4935484;29;20538;-62
2023/12/13 04:15:44;;;;;;;2.22;0.90;;;;;;;-8.78;72.09;99882.94;4933107;29;20062;-62
2023/12/13 04:18:11;;;;;;;5.38;1.40;;;;;;;-8.78;72.28;99899.72;4947541;29;20934;-62
2023/12/13 04:20:37;;;;;;;5.78;1.30;;;;;;;-8.85;72.03;99883.47;4950985;28;20035;-61
2023/12/13 04:23:03;;;;;;;4.18;1.67;;;;;;;-9.01;72.11;99831.56;4921639;29;20057;-62
2023/12/13 04:25:29;;;;;;;7.75;2.28;;;;;;;-8.72;71.81;99888.25;4948502;29;20039;-62
2023/12/13 04:27:55;;;;;;;2.55;0.98;;;;;;;-9.03;71.75;99835.66;4932559;29;20122;-62
2023/12/13 04:30:21;;;;;;;2.17;0.73;;;;;;;-9.02;72.42;99827.31;4950928;28;20043;-63
2023/12/13 04:32:46;;;;;;;9.13;1.00;;;;;;;-9.10;72.17;99825.22;4950685;29;20043;-62
2023/12/13 04:35:12;;;;;;;5.05;2.05;;;;;;;-8.68;72.21;99882.56;4953177;29;20055;-65
2023/12/13 04:37:38;;;;;;;5.88;1.27;;;;;;;-8.63;71.93;99891.19;4903426;29;20078;-62
2023/12/13 04:40:06;;;;;;;4.05;1.05;;;;;;;-8.67;71.66;99884.28;4932956;29;20134;-63
2023/12/13 04:42:32;;;;;;;2.65;1.00;;;;;;;-8.66;71.74;99887.69;4948930;29;20051;-63
2023/12/13 04:44:58;;;;;;;6.60;1.67;;;;;;;-8.58;71.97;99894.78;4920360;29;20070;-63
2023/12/13 04:47:25;;;;;;;4.57;0.73;;;;;;;-8.66;71.68;99890.19;4948841;29;20051;-63
2023/12/13 04:49:51;;;;;;;8.65;1.08;;;;;;;-8.78;72.20;99887.13;4933413;29;20046;-63
2023/12/13 04:52:17;;;;;;;2.25;1.02;;;;;;;-8.75;73.48;99894.84;4919129;29;20503;-63
2023/12/13 04:54:43;;;;;;;10.82;1.30;;;;;;;-8.64;74.57;99896.19;4948003;29;20046;-63
2023/12/13 04:57:09;;;;;;;5.60;0.98;;;;;;;-8.69;74.35;99900.16;4948144;28;20051;-63
2023/12/13 04:59:35;;;;;;;5.03;1.63;;;;;;;-8.76;74.38;99913.25;4948460;29;20042;-62
2023/12/13 05:02:01;;;;;;;6.20;1.85;;;;;;;-8.84;74.11;99909.50;4935719;29;20085;-63
2023/12/13 05:04:27;;;;;;;2.63;0.70;;;;;;;-8.87;73.74;99891.75;4936512;29;20042;-62
2023/12/13 05:06:53;;;;;;;4.88;1.38;;;;;;;-8.82;74.08;99902.91;4949228;29;20043;-63
2023/12/13 05:09:19;;;;;;;5.43;1.15;;;;;;;-8.83;74.31;99886.03;4947744;29;20046;-63
2023/12/13 05:11:45;;;;;;;7.55;1.60;;;;;;;-8.68;74.27;99894.28;4918452;29;20046;-62
2023/12/13 05:14:12;;;;;;;3.25;0.85;;;;;;;-8.64;73.24;99909.66;4936135;29;20134;-63
2023/12/13 05:16:38;;;;;;;10.23;1.30;;;;;;;-8.64;73.43;99906.25;4947078;28;20042;-64
2023/12/13 05:19:04;;;;;;;6.75;0.90;;;;;;;-8.92;73.42;99858.81;4934558;29;20043;-63
2023/12/13 05:21:30;;;;;;;6.22;1.40;;;;;;;-8.72;74.39;99897.47;4934718;29;20534;-63
2023/12/13 05:23:56;;;;;;;11.27;1.55;;;;;;;-8.76;74.61;99899.00;4948270;29;20142;-62
2023/12/13 05:26:22;;;;;;;4.55;1.38;;;;;;;-9.08;74.42;99843.78;4948247;29;20120;-63
2023/12/13 05:28:47;;;;;;;5.60;0.85;;;;;;;-8.83;74.23;99896.13;4947950;29;20126;-64
2023/12/13 05:31:20;;;;;;;4.68;0.73;;;;;;;-8.82;74.10;99908.78;4948403;29;20541;-63
2023/12/13 05:33:47;;;;;;;1.73;0.80;;;;;;;-8.90;73.86;99910.13;4918664;29;20099;-64
2023/12/13 05:36:13;;;;;;;5.35;0.93;;;;;;;-8.95;74.46;99913.22;4948152;29;20506;-63
2023/12/13 05:38:40;;;;;;;3.80;1.38;;;;;;;-8.98;74.87;99921.47;4948431;28;20431;-62
2023/12/13 05:41:06;;;;;;;4.20;1.42;;;;;;;-9.00;75.40;99907.94;4947459;28;20050;-63
2023/12/13 05:43:34;;;;;;;11.48;1.73;;;;;;;-8.90;76.13;99905.09;4947791;29;20035;-63
2023/12/13 05:46:00;;;;;;;4.47;1.35;;;;;;;-8.91;75.48;99917.59;4947517;29;20044;-62
2023/12/13 05:48:26;;;;;;;4.80;1.02;;;;;;;-8.83;76.31;99909.59;4947282;29;20050;-64
2023/12/13 05:50:51;;;;;;;5.82;1.10;;;;;;;-8.80;76.17;99909.75;4932535;29;20039;-63
2023/12/13 05:53:17;;;;;;;6.53;1.05;;;;;;;-8.78;75.83;99924.91;4916543;29;20067;-62
2023/12/13 05:55:43;;;;;;;10.45;2.00;;;;;;;-8.87;75.67;99909.38;4947428;29;20066;-63
2023/12/13 05:58:09;;;;;;;3.08;1.00;;;;;;;-9.31;75.85;99827.63;4925074;29;20538;-63
2023/12/13 06:00:35;;;;;;;7.13;1.42;;;;;;;-8.80;75.33;99913.91;4948029;29;20054;-62
2023/12/13 06:03:01;;;;;;;6.72;1.02;;;;;;;-8.82;75.12;99915.50;4946476;29;20058;-64
2023/12/13 06:05:27;;;;;;;4.47;1.00;;;;;;;-9.17;74.95;99889.56;4934302;29;20050;-64
2023/12/13 06:07:52;;;;;;;4.40;1.35;;;;;;;-8.95;74.95;99915.72;4933503;29;20043;-63
2023/12/13 06:10:18;;;;;;;3.75;1.30;;;;;;;-8.83;74.15;99932.25;4947342;29;20507;-64
2023/12/13 06:12:45;;;;;;;14.90;1.42;;;;;;;-8.91;73.90;99920.13;4947003;29;20036;-63
2023/12/13 06:15:11;;;;;;;10.10;1.30;;;;;;;-8.90;72.97;99927.75;4932873;29;20070;-64
2023/12/13 06:17:37;;;;;;;5.85;1.60;;;;;;;-8.98;72.43;99911.41;4934885;29;20515;-63
2023/12/13 06:20:03;;;;;;;5.90;1.33;;;;;;;-9.23;72.72;99865.75;4948585;29;20503;-60
2023/12/13 06:22:31;;;;;;;1.92;0.93;;;;;;;-8.94;72.10;99947.66;4947102;29;20058;-64
2023/12/13 06:24:57;;;;;;;11.88;1.00;;;;;;;-9.08;72.08;99927.75;4947000;29;20035;-63
2023/12/13 06:27:23;;;;;;;9.52;1.42;;;;;;;-9.08;73.59;99939.47;4936215;29;20050;-62
2023/12/13 06:29:49;;;;;;;3.38;1.42;;;;;;;-9.09;73.55;99928.53;4937150;29;20039;-64
2023/12/13 06:32:15;;;;;;;17.85;1.50;;;;;;;-9.08;73.33;99932.78;4950233;29;20047;-62
2023/12/13 06:34:41;;;;;;;10.65;0.95;;;;;;;-9.08;73.70;99927.75;4936387;29;20168;-61
2023/12/13 06:37:07;;;;;;;5.63;1.60;;;;;;;-9.09;73.57;99926.00;4938424;29;20065;-61
2023/12/13 06:39:33;;;;;;;5.95;1.17;;;;;;;-9.01;73.11;99924.72;4950928;29;20546;-62
2023/12/13 06:41:59;;;;;;;9.30;1.73;;;;;;;-8.95;73.69;99929.19;4950694;29;20066;-64
2023/12/13 06:44:25;;;;;;;3.80;1.05;;;;;;;-8.90;73.91;99921.84;4951646;29;20430;-64
2023/12/13 06:46:52;;;;;;;6.07;1.00;;;;;;;-8.82;72.73;99926.44;4951014;29;20134;-63
2023/12/13 06:49:17;;;;;;;4.43;1.23;;;;;;;-8.87;72.96;99927.00;4934546;29;20149;-63
2023/12/13 06:51:44;;;;;;;6.95;1.40;;;;;;;-8.77;72.80;99930.03;4950659;28;20051;-62
2023/12/13 06:54:10;;;;;;;5.03;1.30;;;;;;;-8.70;72.95;99928.66;4922123;29;20099;-62
2023/12/13 06:56:36;;;;;;;13.55;1.55;;;;;;;-8.70;72.44;99926.13;4938459;29;20039;-63
2023/12/13 06:59:02;;;;;;;5.03;0.80;;;;;;;-8.47;72.83;99934.72;4938014;29;20046;-63
2023/12/13 07:01:27;;;;;;;5.97;1.30;;;;;;;-8.57;72.22;99946.91;4938161;29;20078;-64
2023/12/13 07:03:53;;;;;;;1.70;0.80;;;;;;;-8.70;71.38;99936.22;4936871;29;20043;-63
2023/12/13 07:06:19;;;;;;;5.43;1.05;;;;;;;-8.86;69.90;99944.72;4951097;29;20039;-64
2023/12/13 07:08:45;;;;;;;9.77;1.85;;;;;;;-9.11;70.40;99912.50;4937147;29;20070;-64
2023/12/13 07:11:12;;;;;;;3.97;1.17;;;;;;;-9.20;69.98;99909.53;4950192;29;20486;-64
2023/12/13 07:13:38;;;;;;;5.70;1.55;;;;;;;-8.89;69.46;99947.09;4923151;29;20081;-62
2023/12/13 07:16:04;;;;;;;6.07;1.50;;;;;;;-8.93;68.96;99939.31;4950705;29;20062;-63
2023/12/13 07:18:30;;;;;;;7.25;1.75;;;;;;;-8.89;69.55;99934.50;4949748;29;20143;-63
2023/12/13 07:20:56;;;;;;;9.23;2.22;;;;;;;-8.75;69.42;99957.81;4939264;29;20067;-63
2023/12/13 07:23:25;;;;;;;7.65;2.00;;;;;;;-8.78;68.99;99943.41;4950653;29;20635;-63
2023/12/13 07:25:51;;;;;;;8.60;1.80;;;;;;;-8.79;68.59;99951.75;4950038;29;20039;-63
2023/12/13 07:28:17;;;;;;;10.50;1.65;;;;;;;-8.82;68.45;99943.19;4905604;29;20094;-62
2023/12/13 07:30:43;;;;;;;14.93;2.35;;;;;;;-8.76;68.31;99933.41;4949425;29;20051;-63
2023/12/13 07:33:09;;;;;;;5.60;1.27;;;;;;;-8.64;68.24;99933.97;4937733;29;20050;-63
2023/12/13 07:35:35;;;;;;;5.97;1.65;;;;;;;-8.76;67.45;99924.19;4935677;29;20039;-65
2023/12/13 07:38:03;;;;;;;10.13;1.45;;;;;;;-8.69;67.71;99933.75;4948738;28;20105;-62
2023/12/13 07:40:30;;;;;;;13.13;1.25;;;;;;;-8.71;67.88;99939.53;4949081;29;20133;-63
2023/12/13 07:42:56;;;;;;;5.45;1.92;;;;;;;-8.76;67.34;99926.72;4949271;29;20098;-64
2023/12/13 07:45:22;;;;;;;8.68;1.48;;;;;;;-8.66;67.63;99928.00;4950116;28;20049;-65
2023/12/13 07:47:49;;;;;;;13.02;1.50;;;;;;;-8.79;67.31;99929.06;4936190;29;20043;-63
2023/12/13 07:50:16;;;;;;;8.52;1.30;;;;;;;-8.85;67.73;99951.50;4951522;29;20035;-63
2023/12/13 07:52:42;;;;;;;5.25;0.90;;;;;;;-8.89;67.31;99958.81;4936046;29;20047;-63
2023/12/13 07:55:08;;;;;;;13.93;1.95;;;;;;;-9.27;67.51;99902.50;4950122;29;20070;-65
2023/12/13 07:57:34;;;;;;;9.25;1.30;;;;;;;-9.01;67.25;99938.97;4949175;29;20038;-64
2023/12/13 08:00:00;;;;;;;10.45;1.55;;;;;;;-9.01;68.01;99949.91;4932029;29;20163;-64
2023/12/13 08:02:26;;;;;;;4.97;1.60;;;;;;;-9.26;67.73;99905.88;4935467;29;20630;-64
2023/12/13 08:04:52;;;;;;;5.28;0.95;;;;;;;-9.00;68.33;99949.09;4949637;29;20224;-62
2023/12/13 08:07:18;;;;;;;3.35;1.35;;;;;;;-9.03;68.38;99922.91;4935064;29;20047;-64
2023/12/13 08:09:44;;;;;;;3.90;1.38;;;;;;;-8.88;68.64;99952.97;4949794;29;20046;-63
2023/12/13 08:12:10;;;;;;;11.90;1.60;;;;;;;-8.92;68.98;99951.13;4949101;29;20039;-64
2023/12/13 08:14:37;;;;;;;7.47;1.40;;;;;;;-8.86;68.39;99961.50;4949039;29;20053;-62
2023/12/13 08:17:08;;;;;;;4.32;1.35;;;;;;;-9.17;68.41;99898.75;4938013;29;20040;-64
2023/12/13 08:19:36;;;;;;;10.95;1.83;;;;;;;-8.89;68.41;99954.63;4947321;29;20055;-64
2023/12/13 08:22:03;;;;;;;4.05;1.55;;;;;;;-8.93;68.02;99926.72;4937527;29;20093;-63
2023/12/13 08:24:29;;;;;;;13.20;1.40;;;;;;;-8.74;67.69;99965.41;4949365;29;20047;-63
2023/12/13 08:26:55;;;;;;;10.45;1.83;;;;;;;-8.72;67.54;99947.88;4948393;29;20073;-64
2023/12/13 08:29:21;;;;;;;15.93;1.90;;;;;;;-8.78;67.18;99948.44;4916907;29;20519;-65
2023/12/13 08:31:47;;;;;;;8.75;1.20;;;;;;;-8.66;67.67;99958.22;4936759;29;20054;-64
2023/12/13 08:34:13;;;;;;;8.82;1.55;;;;;;;-8.65;67.35;99963.34;4936516;29;20560;-68
2023/12/13 08:36:39;;;;;;;4.03;2.00;;;;;;;-8.71;66.92;99955.50;4949980;28;20058;-62
2023/12/13 08:39:06;;;;;;;9.02;1.52;;;;;;;-8.72;67.56;99955.41;4948933;29;20051;-64
2023/12/13 08:41:32;;;;;;;10.88;1.58;;;;;;;-8.69;67.72;99915.28;4934861;29;20181;-64
2023/12/13 08:43:58;;;;;;;6.05;1.65;;;;;;;-8.43;67.59;99957.63;4921399;29;20931;-64
2023/12/13 08:46:24;;;;;;;9.77;2.15;;;;;;;-8.53;67.85;99968.09;4935010;29;20053;-62
2023/12/13 08:48:50;;;;;;;6.45;1.48;;;;;;;-8.45;66.90;99958.34;4948085;29;20134;-62
2023/12/13 08:51:16;;;;;;;6.10;1.30;;;;;;;-8.44;66.62;99952.50;4947332;28;20054;-64
2023/12/13 08:53:42;;;;;;;5.90;1.40;;;;;;;-8.32;66.81;99955.59;4949174;28;20039;-62
2023/12/13 08:56:09;;;;;;;7.88;1.80;;;;;;;-8.44;66.18;99960.94;4947678;29;20039;-64
2023/12/13 08:58:36;;;;;;;9.57;1.58;;;;;;;-8.73;66.12;99920.94;4948256;29;20038;-64
2023/12/13 09:01:02;;;;;;;8.93;1.85;;;;;;;-8.57;66.53;99958.63;4949449;29;20043;-62
2023/12/13 09:03:28;;;;;;;9.63;1.65;;;;;;;-8.54;66.53;99963.84;4934322;29;20043;-63
2023/12/13 09:05:54;;;;;;;7.45;1.77;;;;;;;-8.43;66.54;99951.72;4935679;29;20053;-64
2023/12/13 09:08:20;;;;;;;7.00;1.55;;;;;;;-8.21;66.73;99962.78;4947869;29;20134;-66
2023/12/13 09:10:46;;;;;;;8.93;1.60;;;;;;;-8.22;66.08;99962.72;4947678;29;20193;-63
2023/12/13 09:13:12;;;;;;;5.93;1.38;;;;;;;-8.24;66.36;99965.19;4948051;29;20042;-63
2023/12/13 09:15:37;;;;;;;15.23;2.28;;;;;;;-8.54;65.61;99912.56;4933355;29;20878;-64
2023/12/13 09:18:03;;;;;;;12.25;1.77;;;;;;;-8.33;66.57;99957.25;4935180;29;20050;-63
2023/12/13 09:20:29;;;;;;;14.18;2.90;;;;;;;-8.49;66.12;99956.47;4948126;29;20053;-64
2023/12/13 09:22:55;;;;;;;17.35;2.20;;;;;;;-8.57;67.38;99943.53;4948326;29;20541;-64
2023/12/13 09:25:21;;;;;;;9.63;1.77;;;;;;;-8.41;68.32;99945.94;4932498;29;20043;-62
2023/12/13 09:27:47;;;;;;;9.07;2.42;;;;;;;-8.60;68.71;99876.22;4948262;29;20048;-63
2023/12/13 09:30:13;;;;;;;5.57;1.75;;;;;;;-8.09;68.09;99942.28;4947220;29;20601;-60
2023/12/13 09:32:40;;;;;;;19.05;3.13;;;;;;;-8.13;67.76;99940.44;4948340;29;20058;-64
2023/12/13 09:35:06;;;;;;;20.08;2.30;;;;;;;-8.27;67.69;99944.84;4934997;29;20050;-64
2023/12/13 09:37:34;;;;;;;12.77;3.22;;;;;;;-8.50;67.47;99922.84;4948417;29;20126;-62
2023/12/13 09:40:00;;;;;;;10.60;2.03;;;;;;;-8.29;67.71;99954.03;4948063;29;20047;-63
2023/12/13 09:42:26;;;;;;;9.30;2.30;;;;;;;-8.40;66.52;99946.81;4948572;28;20047;-64
2023/12/13 09:44:52;;;;;;;10.23;1.98;;;;;;;-8.52;66.96;99953.81;4946384;29;20046;-63
2023/12/13 09:47:20;;;;;;;8.38;2.22;;;;;;;-8.78;66.54;99905.63;4946402;29;20059;-63
2023/12/13 09:49:47;;;;;;;6.88;2.00;;;;;;;-8.47;66.59;99943.13;4948491;29;20050;-64
2023/12/13 09:52:17;;;;;;;7.88;1.80;;;;;;;-8.43;66.39;99939.13;4931861;29;20479;-63
2023/12/13 09:54:45;;;;;;;14.63;1.88;;;;;;;-8.67;66.41;99891.84;4944263;29;20073;-66
2023/12/13 09:57:11;;;;;;;12.90;1.98;;;;;;;-8.67;66.22;99894.38;4934613;29;20151;-63
2023/12/13 09:59:38;;;;;;;8.98;2.35;;;;;;;-8.45;67.93;99946.59;4948075;29;20866;-64
2023/12/13 10:02:09;;;;;;;17.08;2.20;;;;;;;-8.30;68.40;99952.31;4936734;29;20062;-62
2023/12/13 10:04:36;;;;;;;12.40;2.25;;;;;;;-8.37;69.98;99945.28;4953428;28;20492;-62
2023/12/13 10:07:03;;;;;;;15.65;2.70;;;;;;;-8.40;70.34;99942.63;4952102;29;20090;-63
2023/12/13 10:09:29;;;;;;;10.88;2.00;;;;;;;-8.67;70.29;99908.63;4937622;29;20474;-63
2023/12/13 10:11:55;;;;;;;11.60;1.92;;;;;;;-8.83;70.52;99879.34;4951604;29;20047;-64
2023/12/13 10:14:21;;;;;;;8.23;1.80;;;;;;;-8.58;69.57;99950.22;4938622;29;20046;-62
2023/12/13 10:16:47;;;;;;;15.15;2.67;;;;;;;-8.68;69.95;99932.94;4951734;29;20039;-65
2023/12/13 10:19:13;;;;;;;15.40;2.15;;;;;;;-8.58;70.39;99955.25;4952074;29;20042;-63
2023/12/13 10:21:38;;;;;;;12.05;2.05;;;;;;;-8.54;69.99;99946.19;4951791;29;20058;-64
2023/12/13 10:24:07;;;;;;;25.23;3.20;;;;;;;-8.45;69.78;99941.56;4935779;29;20074;-65
2023/12/13 10:26:35;;;;;;;14.30;2.83;;;;;;;-8.94;69.23;99888.06;4938185;29;20043;-65
2023/12/13 10:29:02;;;;;;;20.08;2.47;;;;;;;-8.62;69.58;99950.88;4923542;29;20083;-63
2023/12/13 10:31:28;;;;;;;14.57;2.17;;;;;;;-8.71;69.04;99950.47;4937430;29;20082;-65
2023/12/13 10:33:54;;;;;;;9.23;2.60;;;;;;;-9.03;69.33;99912.84;4920699;29;20046;-65
2023/12/13 10:36:20;;;;;;;6.68;2.75;;;;;;;-8.75;70.39;99960.34;4951269;29;20046;-63
2023/12/13 10:38:52;;;;;;;4.03;1.70;;;;;;;-8.74;70.36;99957.03;4937578;29;20047;-62
2023/12/13 10:41:27;;;;;;;8.38;1.73;;;;;;;-8.98;71.09;99943.28;4936293;29;20061;-62
2023/12/13 10:43:58;;;;;;;10.73;2.33;;;;;;;-8.89;71.47;99952.13;4914333;29;20075;-65
2023/12/13 10:46:31;;;;;;;18.80;3.22;;;;;;;-8.80;71.72;99954.22;4946725;29;20043;-62
2023/12/13 10:48:58;;;;;;;8.70;1.85;;;;;;;-8.85;71.53;99935.50;4924673;29;20490;-63
2023/12/13 10:51:26;;;;;;;13.93;2.35;;;;;;;-8.69;71.40;99953.91;4951838;29;20039;-64
2023/12/13 10:53:52;;;;;;;6.45;1.50;;;;;;;-8.68;71.96;99939.66;4951123;29;20050;-63
2023/12/13 10:56:19;;;;;;;21.98;3.67;;;;;;;-8.67;71.83;99951.47;4924786;29;20069;-65
2023/12/13 10:58:44;;;;;;;10.77;1.60;;;;;;;-8.69;71.38;99946.34;4951775;29;20142;-63
2023/12/13 11:01:12;;;;;;;16.35;2.67;;;;;;;-8.58;71.21;99950.22;4950351;29;20126;-63
2023/12/13 11:03:43;;;;;;;10.65;2.53;;;;;;;-8.53;71.44;99904.22;4921167;29;20035;-63
2023/12/13 11:06:13;;;;;;;14.27;2.83;;;;;;;-8.29;70.60;99945.59;4938798;29;20066;-63
2023/12/13 11:08:40;;;;;;;10.77;2.53;;;;;;;-8.23;70.58;99951.78;4938045;29;20051;-63
2023/12/13 11:11:07;;;;;;;13.93;2.78;;;;;;;-8.08;70.32;99955.75;4923168;29;20050;-61
2023/12/13 11:13:54;;;;;;;13.88;2.75;;;;;;;-8.07;69.79;99960.88;4949246;28;20103;-63
2023/12/13 11:16:21;;;;;;;13.25;2.15;;;;;;;-8.22;69.27;99957.69;4951057;29;20063;-64
2023/12/13 11:18:51;;;;;;;15.75;2.60;;;;;;;-8.24;68.84;99947.53;4936025;29;20101;-63
2023/12/13 11:21:25;;;;;;;15.43;2.75;;;;;;;-8.22;68.59;99960.22;4930336;29;20063;-61
2023/12/13 11:23:54;;;;;;;20.15;2.83;;;;;;;-8.38;68.23;99920.03;4937190;29;20049;-62
2023/12/13 11:26:24;;;;;;;9.40;3.15;;;;;;;-8.26;67.95;99959.19;4922580;29;20135;-61
2023/12/13 11:28:54;;;;;;;;;;;;;;;-8.27;67.77;99951.56;4922588;29;20150;-63